sensor_id;sensor_type;location;lat;lon;timestamp;P1;durP1;ratioP1;P2;durP2;ratioP2
12308;SDS011;6217;48.150;17.142;2023-03-14T00:02:15;3.63;;;2.28;;
12308;SDS011;6217;48.150;17.142;2023-03-14T00:06:21;5.43;;;2.63;;
12308;SDS011;6217;48.150;17.142;2023-03-14T00:10:28;6.40;;;2.63;;
12308;SDS011;6217;48.150;17.142;2023-03-14T00:14:34;4.57;;;3.08;;
12308;SDS011;6217;48.150;17.142;2023-03-14T00:18:40;4.00;;;2.80;;
12308;SDS011;6217;48.150;17.142;2023-03-14T00:22:46;4.40;;;2.55;;
12308;SDS011;6217;48.150;17.142;2023-03-14T00:26:52;4.38;;;2.83;;
12308;SDS011;6217;48.150;17.142;2023-03-14T00:30:58;4.45;;;2.50;;
12308;SDS011;6217;48.150;17.142;2023-03-14T00:35:04;4.28;;;1.98;;
12308;SDS011;6217;48.150;17.142;2023-03-14T00:39:10;7.32;;;3.95;;
12308;SDS011;6217;48.150;17.142;2023-03-14T00:43:16;4.75;;;2.25;;
12308;SDS011;6217;48.150;17.142;2023-03-14T00:47:23;4.10;;;2.33;;
12308;SDS011;6217;48.150;17.142;2023-03-14T00:51:28;4.97;;;2.95;;
12308;SDS011;6217;48.150;17.142;2023-03-14T00:55:38;3.17;;;2.40;;
12308;SDS011;6217;48.150;17.142;2023-03-14T00:59:45;5.20;;;2.27;;
12308;SDS011;6217;48.150;17.142;2023-03-14T01:03:52;4.38;;;2.33;;
12308;SDS011;6217;48.150;17.142;2023-03-14T01:08:00;4.65;;;2.65;;
12308;SDS011;6217;48.150;17.142;2023-03-14T01:12:06;3.33;;;2.08;;
12308;SDS011;6217;48.150;17.142;2023-03-14T01:16:12;4.88;;;2.95;;
12308;SDS011;6217;48.150;17.142;2023-03-14T01:20:19;3.25;;;2.45;;
12308;SDS011;6217;48.150;17.142;2023-03-14T01:24:25;4.20;;;2.65;;
12308;SDS011;6217;48.150;17.142;2023-03-14T01:28:31;8.88;;;2.72;;
12308;SDS011;6217;48.150;17.142;2023-03-14T01:32:37;3.72;;;2.58;;
12308;SDS011;6217;48.150;17.142;2023-03-14T01:36:43;5.05;;;3.30;;
12308;SDS011;6217;48.150;17.142;2023-03-14T01:40:50;5.80;;;2.67;;
12308;SDS011;6217;48.150;17.142;2023-03-14T01:44:59;6.45;;;2.40;;
12308;SDS011;6217;48.150;17.142;2023-03-14T01:49:24;6.05;;;2.33;;
12308;SDS011;6217;48.150;17.142;2023-03-14T01:53:45;3.83;;;2.22;;
12308;SDS011;6217;48.150;17.142;2023-03-14T01:57:59;6.90;;;2.50;;
12308;SDS011;6217;48.150;17.142;2023-03-14T02:02:09;7.97;;;3.00;;
12308;SDS011;6217;48.150;17.142;2023-03-14T02:06:19;6.35;;;3.53;;
12308;SDS011;6217;48.150;17.142;2023-03-14T02:10:32;4.25;;;2.47;;
12308;SDS011;6217;48.150;17.142;2023-03-14T02:14:44;5.57;;;2.47;;
12308;SDS011;6217;48.150;17.142;2023-03-14T02:19:06;4.78;;;2.35;;
12308;SDS011;6217;48.150;17.142;2023-03-14T02:28:14;5.80;;;3.63;;
12308;SDS011;6217;48.150;17.142;2023-03-14T02:32:21;5.07;;;3.75;;
12308;SDS011;6217;48.150;17.142;2023-03-14T02:36:30;6.53;;;3.38;;
12308;SDS011;6217;48.150;17.142;2023-03-14T02:40:37;3.88;;;2.83;;
12308;SDS011;6217;48.150;17.142;2023-03-14T02:44:54;5.90;;;3.10;;
12308;SDS011;6217;48.150;17.142;2023-03-14T02:49:27;7.32;;;3.13;;
12308;SDS011;6217;48.150;17.142;2023-03-14T02:53:36;4.32;;;2.50;;
12308;SDS011;6217;48.150;17.142;2023-03-14T02:57:49;3.88;;;2.83;;
12308;SDS011;6217;48.150;17.142;2023-03-14T03:01:56;4.85;;;2.90;;
12308;SDS011;6217;48.150;17.142;2023-03-14T03:06:04;5.28;;;2.47;;
12308;SDS011;6217;48.150;17.142;2023-03-14T03:10:10;4.63;;;2.45;;
12308;SDS011;6217;48.150;17.142;2023-03-14T03:14:17;8.23;;;3.17;;
12308;SDS011;6217;48.150;17.142;2023-03-14T03:18:23;3.45;;;2.65;;
12308;SDS011;6217;48.150;17.142;2023-03-14T03:22:29;4.18;;;2.58;;
12308;SDS011;6217;48.150;17.142;2023-03-14T03:26:36;6.53;;;2.33;;
12308;SDS011;6217;48.150;17.142;2023-03-14T03:30:44;6.55;;;2.83;;
12308;SDS011;6217;48.150;17.142;2023-03-14T03:34:51;3.33;;;2.20;;
12308;SDS011;6217;48.150;17.142;2023-03-14T03:38:57;4.75;;;2.35;;
12308;SDS011;6217;48.150;17.142;2023-03-14T03:43:04;3.85;;;2.40;;
12308;SDS011;6217;48.150;17.142;2023-03-14T03:47:14;5.07;;;2.30;;
12308;SDS011;6217;48.150;17.142;2023-03-14T03:51:20;8.30;;;2.50;;
12308;SDS011;6217;48.150;17.142;2023-03-14T03:55:27;7.30;;;2.50;;
12308;SDS011;6217;48.150;17.142;2023-03-14T03:59:33;4.95;;;2.50;;
12308;SDS011;6217;48.150;17.142;2023-03-14T04:03:39;4.28;;;3.17;;
12308;SDS011;6217;48.150;17.142;2023-03-14T04:07:45;7.75;;;3.67;;
12308;SDS011;6217;48.150;17.142;2023-03-14T04:11:56;4.82;;;2.42;;
12308;SDS011;6217;48.150;17.142;2023-03-14T04:16:20;5.53;;;2.60;;
12308;SDS011;6217;48.150;17.142;2023-03-14T04:20:34;6.72;;;2.22;;
12308;SDS011;6217;48.150;17.142;2023-03-14T04:24:41;3.80;;;2.08;;
12308;SDS011;6217;48.150;17.142;2023-03-14T04:28:47;5.22;;;2.65;;
12308;SDS011;6217;48.150;17.142;2023-03-14T04:32:53;5.70;;;2.20;;
12308;SDS011;6217;48.150;17.142;2023-03-14T04:37:03;7.47;;;2.50;;
12308;SDS011;6217;48.150;17.142;2023-03-14T04:45:20;3.53;;;2.08;;
12308;SDS011;6217;48.150;17.142;2023-03-14T04:49:27;7.53;;;2.53;;
12308;SDS011;6217;48.150;17.142;2023-03-14T04:53:33;4.30;;;2.30;;
12308;SDS011;6217;48.150;17.142;2023-03-14T04:57:43;5.72;;;3.20;;
12308;SDS011;6217;48.150;17.142;2023-03-14T05:01:49;5.07;;;2.10;;
12308;SDS011;6217;48.150;17.142;2023-03-14T05:06:04;5.63;;;2.63;;
12308;SDS011;6217;48.150;17.142;2023-03-14T05:10:33;18.23;;;3.80;;
12308;SDS011;6217;48.150;17.142;2023-03-14T05:15:08;4.90;;;2.70;;
12308;SDS011;6217;48.150;17.142;2023-03-14T05:19:14;5.40;;;2.95;;
12308;SDS011;6217;48.150;17.142;2023-03-14T05:23:55;3.90;;;2.05;;
12308;SDS011;6217;48.150;17.142;2023-03-14T05:28:33;9.43;;;3.50;;
12308;SDS011;6217;48.150;17.142;2023-03-14T05:32:49;7.95;;;2.97;;
12308;SDS011;6217;48.150;17.142;2023-03-14T05:37:03;6.25;;;2.50;;
12308;SDS011;6217;48.150;17.142;2023-03-14T05:41:18;5.32;;;3.22;;
12308;SDS011;6217;48.150;17.142;2023-03-14T05:45:51;6.25;;;3.42;;
12308;SDS011;6217;48.150;17.142;2023-03-14T05:50:12;5.30;;;2.50;;
12308;SDS011;6217;48.150;17.142;2023-03-14T05:54:31;4.10;;;2.40;;
12308;SDS011;6217;48.150;17.142;2023-03-14T05:59:03;4.40;;;2.40;;
12308;SDS011;6217;48.150;17.142;2023-03-14T06:03:45;9.10;;;3.30;;
12308;SDS011;6217;48.150;17.142;2023-03-14T06:07:51;4.90;;;3.15;;
12308;SDS011;6217;48.150;17.142;2023-03-14T06:11:57;9.65;;;3.30;;
12308;SDS011;6217;48.150;17.142;2023-03-14T06:16:03;10.25;;;3.15;;
12308;SDS011;6217;48.150;17.142;2023-03-14T06:20:10;7.68;;;3.35;;
12308;SDS011;6217;48.150;17.142;2023-03-14T06:24:16;5.00;;;3.00;;
12308;SDS011;6217;48.150;17.142;2023-03-14T06:28:26;7.13;;;3.75;;
12308;SDS011;6217;48.150;17.142;2023-03-14T06:32:37;7.15;;;4.32;;
12308;SDS011;6217;48.150;17.142;2023-03-14T06:36:48;9.48;;;4.10;;
12308;SDS011;6217;48.150;17.142;2023-03-14T06:40:54;5.88;;;3.42;;
12308;SDS011;6217;48.150;17.142;2023-03-14T06:45:10;6.45;;;4.03;;
12308;SDS011;6217;48.150;17.142;2023-03-14T06:49:16;3.83;;;2.72;;
12308;SDS011;6217;48.150;17.142;2023-03-14T06:53:23;4.03;;;2.92;;
12308;SDS011;6217;48.150;17.142;2023-03-14T06:57:30;5.53;;;2.78;;
12308;SDS011;6217;48.150;17.142;2023-03-14T07:01:36;4.95;;;3.08;;
12308;SDS011;6217;48.150;17.142;2023-03-14T07:05:48;5.47;;;2.83;;
12308;SDS011;6217;48.150;17.142;2023-03-14T07:09:54;5.15;;;3.35;;
12308;SDS011;6217;48.150;17.142;2023-03-14T07:14:00;6.53;;;3.67;;
12308;SDS011;6217;48.150;17.142;2023-03-14T07:18:07;7.53;;;2.78;;
12308;SDS011;6217;48.150;17.142;2023-03-14T07:22:13;7.95;;;2.90;;
12308;SDS011;6217;48.150;17.142;2023-03-14T07:26:19;8.23;;;2.55;;
12308;SDS011;6217;48.150;17.142;2023-03-14T07:30:29;10.35;;;2.80;;
12308;SDS011;6217;48.150;17.142;2023-03-14T07:34:36;4.38;;;2.60;;
12308;SDS011;6217;48.150;17.142;2023-03-14T07:38:43;4.95;;;2.58;;
12308;SDS011;6217;48.150;17.142;2023-03-14T07:42:49;6.95;;;3.35;;
12308;SDS011;6217;48.150;17.142;2023-03-14T07:47:03;7.82;;;2.70;;
12308;SDS011;6217;48.150;17.142;2023-03-14T07:51:09;4.30;;;2.97;;
12308;SDS011;6217;48.150;17.142;2023-03-14T07:55:15;4.88;;;3.13;;
12308;SDS011;6217;48.150;17.142;2023-03-14T07:59:21;9.43;;;2.75;;
12308;SDS011;6217;48.150;17.142;2023-03-14T08:03:27;9.93;;;3.13;;
12308;SDS011;6217;48.150;17.142;2023-03-14T08:07:33;11.07;;;3.20;;
12308;SDS011;6217;48.150;17.142;2023-03-14T08:11:39;7.30;;;3.40;;
12308;SDS011;6217;48.150;17.142;2023-03-14T08:15:47;7.45;;;3.72;;
12308;SDS011;6217;48.150;17.142;2023-03-14T08:19:54;5.63;;;3.25;;
12308;SDS011;6217;48.150;17.142;2023-03-14T08:24:00;12.35;;;4.03;;
12308;SDS011;6217;48.150;17.142;2023-03-14T08:28:06;9.10;;;4.22;;
12308;SDS011;6217;48.150;17.142;2023-03-14T08:32:12;7.03;;;3.70;;
12308;SDS011;6217;48.150;17.142;2023-03-14T08:36:18;7.60;;;4.88;;
12308;SDS011;6217;48.150;17.142;2023-03-14T08:40:25;10.98;;;4.05;;
12308;SDS011;6217;48.150;17.142;2023-03-14T08:44:30;5.32;;;3.63;;
12308;SDS011;6217;48.150;17.142;2023-03-14T08:48:37;9.18;;;4.00;;
12308;SDS011;6217;48.150;17.142;2023-03-14T08:52:42;8.70;;;3.80;;
12308;SDS011;6217;48.150;17.142;2023-03-14T08:56:48;7.75;;;4.45;;
12308;SDS011;6217;48.150;17.142;2023-03-14T09:00:54;10.10;;;4.20;;
12308;SDS011;6217;48.150;17.142;2023-03-14T09:05:00;10.35;;;3.95;;
12308;SDS011;6217;48.150;17.142;2023-03-14T09:09:07;16.92;;;4.72;;
12308;SDS011;6217;48.150;17.142;2023-03-14T09:13:13;9.38;;;4.75;;
12308;SDS011;6217;48.150;17.142;2023-03-14T09:17:19;8.90;;;4.25;;
12308;SDS011;6217;48.150;17.142;2023-03-14T09:21:26;10.95;;;4.72;;
12308;SDS011;6217;48.150;17.142;2023-03-14T09:25:32;15.27;;;4.18;;
12308;SDS011;6217;48.150;17.142;2023-03-14T09:29:38;6.40;;;3.47;;
12308;SDS011;6217;48.150;17.142;2023-03-14T09:33:44;12.32;;;3.95;;
12308;SDS011;6217;48.150;17.142;2023-03-14T09:37:50;9.75;;;4.93;;
12308;SDS011;6217;48.150;17.142;2023-03-14T09:41:56;10.65;;;4.68;;
12308;SDS011;6217;48.150;17.142;2023-03-14T09:46:08;7.78;;;4.20;;
12308;SDS011;6217;48.150;17.142;2023-03-14T09:50:16;11.23;;;5.15;;
12308;SDS011;6217;48.150;17.142;2023-03-14T10:02:55;4.82;;;3.17;;
12308;SDS011;6217;48.150;17.142;2023-03-14T10:07:09;9.00;;;3.95;;
12308;SDS011;6217;48.150;17.142;2023-03-14T10:11:20;8.20;;;3.63;;
12308;SDS011;6217;48.150;17.142;2023-03-14T10:15:31;7.85;;;3.97;;
12308;SDS011;6217;48.150;17.142;2023-03-14T10:19:55;7.07;;;4.47;;
12308;SDS011;6217;48.150;17.142;2023-03-14T10:24:18;8.85;;;4.22;;
12308;SDS011;6217;48.150;17.142;2023-03-14T10:28:43;9.20;;;3.90;;
12308;SDS011;6217;48.150;17.142;2023-03-14T10:32:50;14.70;;;4.97;;
12308;SDS011;6217;48.150;17.142;2023-03-14T10:36:58;17.58;;;6.65;;
12308;SDS011;6217;48.150;17.142;2023-03-14T10:41:30;15.50;;;7.80;;
12308;SDS011;6217;48.150;17.142;2023-03-14T10:45:38;12.77;;;7.00;;
12308;SDS011;6217;48.150;17.142;2023-03-14T10:49:48;10.82;;;6.10;;
12308;SDS011;6217;48.150;17.142;2023-03-14T10:54:01;11.85;;;6.72;;
12308;SDS011;6217;48.150;17.142;2023-03-14T11:07:11;15.52;;;8.40;;
12308;SDS011;6217;48.150;17.142;2023-03-14T11:11:32;17.02;;;8.90;;
12308;SDS011;6217;48.150;17.142;2023-03-14T11:16:02;10.70;;;6.47;;
12308;SDS011;6217;48.150;17.142;2023-03-14T11:25:41;9.93;;;6.10;;
12308;SDS011;6217;48.150;17.142;2023-03-14T11:29:53;12.27;;;7.82;;
12308;SDS011;6217;48.150;17.142;2023-03-14T11:38:58;9.30;;;6.13;;
12308;SDS011;6217;48.150;17.142;2023-03-14T11:51:50;15.95;;;10.10;;
12308;SDS011;6217;48.150;17.142;2023-03-14T11:56:01;15.63;;;8.27;;
12308;SDS011;6217;48.150;17.142;2023-03-14T12:04:30;16.63;;;9.00;;
12308;SDS011;6217;48.150;17.142;2023-03-14T12:13:04;14.77;;;8.95;;
12308;SDS011;6217;48.150;17.142;2023-03-14T12:17:48;14.93;;;5.68;;
12308;SDS011;6217;48.150;17.142;2023-03-14T12:30:25;3.58;;;1.75;;
12308;SDS011;6217;48.150;17.142;2023-03-14T12:34:44;1.35;;;1.10;;
12308;SDS011;6217;48.150;17.142;2023-03-14T12:38:58;3.05;;;1.10;;
12308;SDS011;6217;48.150;17.142;2023-03-14T12:43:27;2.63;;;1.15;;
12308;SDS011;6217;48.150;17.142;2023-03-14T12:51:45;3.25;;;1.23;;
12308;SDS011;6217;48.150;17.142;2023-03-14T12:55:57;5.00;;;1.17;;
12308;SDS011;6217;48.150;17.142;2023-03-14T13:04:31;2.00;;;1.57;;
12308;SDS011;6217;48.150;17.142;2023-03-14T13:13:34;2.17;;;0.95;;
12308;SDS011;6217;48.150;17.142;2023-03-14T13:17:47;2.42;;;1.23;;
12308;SDS011;6217;48.150;17.142;2023-03-14T13:22:02;1.98;;;0.63;;
12308;SDS011;6217;48.150;17.142;2023-03-14T13:26:18;1.83;;;0.50;;
12308;SDS011;6217;48.150;17.142;2023-03-14T13:30:27;3.67;;;0.55;;
12308;SDS011;6217;48.150;17.142;2023-03-14T13:34:41;0.95;;;0.40;;
12308;SDS011;6217;48.150;17.142;2023-03-14T13:38:54;0.68;;;0.68;;
12308;SDS011;6217;48.150;17.142;2023-03-14T13:47:24;0.73;;;0.50;;
12308;SDS011;6217;48.150;17.142;2023-03-14T13:51:31;1.58;;;1.05;;
12308;SDS011;6217;48.150;17.142;2023-03-14T13:55:38;1.05;;;0.50;;
12308;SDS011;6217;48.150;17.142;2023-03-14T13:59:45;0.65;;;0.57;;
12308;SDS011;6217;48.150;17.142;2023-03-14T14:04:15;0.80;;;0.30;;
12308;SDS011;6217;48.150;17.142;2023-03-14T14:08:27;3.13;;;0.77;;
12308;SDS011;6217;48.150;17.142;2023-03-14T14:12:39;1.20;;;0.50;;
12308;SDS011;6217;48.150;17.142;2023-03-14T14:16:55;0.40;;;0.40;;
12308;SDS011;6217;48.150;17.142;2023-03-14T14:21:03;0.40;;;0.40;;
12308;SDS011;6217;48.150;17.142;2023-03-14T14:25:12;2.33;;;0.60;;
12308;SDS011;6217;48.150;17.142;2023-03-14T14:29:23;1.30;;;0.40;;
12308;SDS011;6217;48.150;17.142;2023-03-14T14:33:38;5.28;;;0.60;;
12308;SDS011;6217;48.150;17.142;2023-03-14T14:38:11;0.73;;;0.60;;
12308;SDS011;6217;48.150;17.142;2023-03-14T14:42:24;1.42;;;0.40;;
12308;SDS011;6217;48.150;17.142;2023-03-14T14:46:34;0.40;;;0.40;;
12308;SDS011;6217;48.150;17.142;2023-03-14T14:55:18;1.40;;;0.35;;
12308;SDS011;6217;48.150;17.142;2023-03-14T14:59:26;1.75;;;0.40;;
12308;SDS011;6217;48.150;17.142;2023-03-14T15:03:34;1.17;;;0.52;;
12308;SDS011;6217;48.150;17.142;2023-03-14T15:07:40;0.77;;;0.32;;
12308;SDS011;6217;48.150;17.142;2023-03-14T15:11:46;1.30;;;0.50;;
12308;SDS011;6217;48.150;17.142;2023-03-14T15:15:53;1.50;;;0.88;;
12308;SDS011;6217;48.150;17.142;2023-03-14T15:20:02;0.73;;;0.43;;
12308;SDS011;6217;48.150;17.142;2023-03-14T15:24:10;1.75;;;0.50;;
12308;SDS011;6217;48.150;17.142;2023-03-14T15:28:23;1.67;;;0.40;;
12308;SDS011;6217;48.150;17.142;2023-03-14T15:32:33;1.23;;;0.80;;
12308;SDS011;6217;48.150;17.142;2023-03-14T15:36:39;0.60;;;0.40;;
12308;SDS011;6217;48.150;17.142;2023-03-14T15:40:45;3.88;;;1.38;;
12308;SDS011;6217;48.150;17.142;2023-03-14T15:44:51;0.60;;;0.40;;
12308;SDS011;6217;48.150;17.142;2023-03-14T15:48:57;1.05;;;0.60;;
12308;SDS011;6217;48.150;17.142;2023-03-14T15:53:03;0.60;;;0.45;;
12308;SDS011;6217;48.150;17.142;2023-03-14T15:57:10;1.70;;;0.70;;
12308;SDS011;6217;48.150;17.142;2023-03-14T16:01:16;0.95;;;0.70;;
12308;SDS011;6217;48.150;17.142;2023-03-14T16:05:22;3.65;;;0.77;;
12308;SDS011;6217;48.150;17.142;2023-03-14T16:09:28;0.65;;;0.57;;
12308;SDS011;6217;48.150;17.142;2023-03-14T16:13:33;0.40;;;0.40;;
12308;SDS011;6217;48.150;17.142;2023-03-14T16:17:39;2.47;;;0.55;;
12308;SDS011;6217;48.150;17.142;2023-03-14T16:21:47;7.22;;;0.80;;
12308;SDS011;6217;48.150;17.142;2023-03-14T16:25:54;9.50;;;1.42;;
12308;SDS011;6217;48.150;17.142;2023-03-14T16:30:00;5.10;;;1.45;;
12308;SDS011;6217;48.150;17.142;2023-03-14T16:34:06;4.47;;;1.40;;
12308;SDS011;6217;48.150;17.142;2023-03-14T16:38:15;5.97;;;1.67;;
12308;SDS011;6217;48.150;17.142;2023-03-14T16:42:21;5.82;;;1.40;;
12308;SDS011;6217;48.150;17.142;2023-03-14T16:46:27;7.22;;;1.70;;
12308;SDS011;6217;48.150;17.142;2023-03-14T16:50:34;5.75;;;1.88;;
12308;SDS011;6217;48.150;17.142;2023-03-14T16:54:40;3.15;;;2.03;;
12308;SDS011;6217;48.150;17.142;2023-03-14T16:58:47;4.13;;;2.17;;
12308;SDS011;6217;48.150;17.142;2023-03-14T17:02:54;6.55;;;1.63;;
12308;SDS011;6217;48.150;17.142;2023-03-14T17:07:00;5.97;;;1.80;;
12308;SDS011;6217;48.150;17.142;2023-03-14T17:11:06;6.22;;;2.35;;
12308;SDS011;6217;48.150;17.142;2023-03-14T17:15:14;5.25;;;1.80;;
12308;SDS011;6217;48.150;17.142;2023-03-14T17:19:20;3.60;;;2.08;;
12308;SDS011;6217;48.150;17.142;2023-03-14T17:23:27;5.95;;;1.70;;
12308;SDS011;6217;48.150;17.142;2023-03-14T17:27:35;2.00;;;1.70;;
12308;SDS011;6217;48.150;17.142;2023-03-14T17:31:41;4.30;;;1.98;;
12308;SDS011;6217;48.150;17.142;2023-03-14T17:35:47;5.78;;;2.10;;
12308;SDS011;6217;48.150;17.142;2023-03-14T17:39:52;6.97;;;2.38;;
12308;SDS011;6217;48.150;17.142;2023-03-14T17:43:58;17.55;;;3.65;;
12308;SDS011;6217;48.150;17.142;2023-03-14T17:48:04;5.10;;;2.22;;
12308;SDS011;6217;48.150;17.142;2023-03-14T17:52:11;3.85;;;1.80;;
12308;SDS011;6217;48.150;17.142;2023-03-14T17:56:17;4.65;;;2.35;;
12308;SDS011;6217;48.150;17.142;2023-03-14T18:00:23;7.25;;;2.67;;
12308;SDS011;6217;48.150;17.142;2023-03-14T18:04:29;5.70;;;1.50;;
12308;SDS011;6217;48.150;17.142;2023-03-14T18:08:36;9.30;;;1.92;;
12308;SDS011;6217;48.150;17.142;2023-03-14T18:12:44;3.60;;;1.73;;
12308;SDS011;6217;48.150;17.142;2023-03-14T18:16:50;7.45;;;2.60;;
12308;SDS011;6217;48.150;17.142;2023-03-14T18:20:58;4.13;;;1.83;;
12308;SDS011;6217;48.150;17.142;2023-03-14T18:25:04;4.28;;;2.53;;
12308;SDS011;6217;48.150;17.142;2023-03-14T18:29:11;2.70;;;1.80;;
12308;SDS011;6217;48.150;17.142;2023-03-14T18:33:19;3.22;;;1.88;;
12308;SDS011;6217;48.150;17.142;2023-03-14T18:37:26;4.88;;;2.47;;
12308;SDS011;6217;48.150;17.142;2023-03-14T18:41:33;6.68;;;2.10;;
12308;SDS011;6217;48.150;17.142;2023-03-14T18:45:39;4.22;;;2.38;;
12308;SDS011;6217;48.150;17.142;2023-03-14T18:49:45;6.15;;;2.00;;
12308;SDS011;6217;48.150;17.142;2023-03-14T18:53:51;3.95;;;1.73;;
12308;SDS011;6217;48.150;17.142;2023-03-14T18:57:59;4.35;;;1.83;;
12308;SDS011;6217;48.150;17.142;2023-03-14T19:02:05;2.47;;;2.00;;
12308;SDS011;6217;48.150;17.142;2023-03-14T19:06:11;5.47;;;1.75;;
12308;SDS011;6217;48.150;17.142;2023-03-14T19:10:18;2.50;;;1.70;;
12308;SDS011;6217;48.150;17.142;2023-03-14T19:14:24;3.88;;;2.00;;
12308;SDS011;6217;48.150;17.142;2023-03-14T19:18:31;3.55;;;2.05;;
12308;SDS011;6217;48.150;17.142;2023-03-14T19:22:37;3.90;;;2.58;;
12308;SDS011;6217;48.150;17.142;2023-03-14T19:26:43;3.70;;;2.00;;
12308;SDS011;6217;48.150;17.142;2023-03-14T19:30:49;7.45;;;3.20;;
12308;SDS011;6217;48.150;17.142;2023-03-14T19:34:58;4.80;;;3.08;;
12308;SDS011;6217;48.150;17.142;2023-03-14T19:39:04;5.03;;;2.92;;
12308;SDS011;6217;48.150;17.142;2023-03-14T19:43:11;2.63;;;2.30;;
12308;SDS011;6217;48.150;17.142;2023-03-14T19:47:17;5.13;;;2.70;;
12308;SDS011;6217;48.150;17.142;2023-03-14T19:51:23;3.13;;;2.47;;
12308;SDS011;6217;48.150;17.142;2023-03-14T19:55:29;4.50;;;2.92;;
12308;SDS011;6217;48.150;17.142;2023-03-14T19:59:38;3.78;;;2.08;;
12308;SDS011;6217;48.150;17.142;2023-03-14T20:03:44;4.18;;;2.05;;
12308;SDS011;6217;48.150;17.142;2023-03-14T20:07:51;4.63;;;2.33;;
12308;SDS011;6217;48.150;17.142;2023-03-14T20:12:00;1.00;;;0.90;;
12308;SDS011;6217;48.150;17.142;2023-03-14T20:16:06;2.70;;;1.45;;
12308;SDS011;6217;48.150;17.142;2023-03-14T20:20:15;4.18;;;0.80;;
12308;SDS011;6217;48.150;17.142;2023-03-14T20:24:22;0.60;;;0.60;;
12308;SDS011;6217;48.150;17.142;2023-03-14T20:28:29;2.17;;;0.57;;
12308;SDS011;6217;48.150;17.142;2023-03-14T20:32:36;0.47;;;0.47;;
12308;SDS011;6217;48.150;17.142;2023-03-14T20:36:42;0.40;;;0.30;;
12308;SDS011;6217;48.150;17.142;2023-03-14T20:40:49;0.45;;;0.38;;
12308;SDS011;6217;48.150;17.142;2023-03-14T20:44:54;1.05;;;0.40;;
12308;SDS011;6217;48.150;17.142;2023-03-14T20:49:00;0.50;;;0.50;;
12308;SDS011;6217;48.150;17.142;2023-03-14T20:53:06;0.40;;;0.40;;
12308;SDS011;6217;48.150;17.142;2023-03-14T20:57:12;0.35;;;0.35;;
12308;SDS011;6217;48.150;17.142;2023-03-14T21:01:20;0.50;;;0.50;;
12308;SDS011;6217;48.150;17.142;2023-03-14T21:05:27;0.50;;;0.50;;
12308;SDS011;6217;48.150;17.142;2023-03-14T21:09:32;0.43;;;0.43;;
12308;SDS011;6217;48.150;17.142;2023-03-14T21:13:38;1.20;;;0.35;;
12308;SDS011;6217;48.150;17.142;2023-03-14T21:17:44;0.40;;;0.40;;
12308;SDS011;6217;48.150;17.142;2023-03-14T21:21:50;1.17;;;0.50;;
12308;SDS011;6217;48.150;17.142;2023-03-14T21:25:56;0.73;;;0.40;;
12308;SDS011;6217;48.150;17.142;2023-03-14T21:30:02;1.67;;;0.50;;
12308;SDS011;6217;48.150;17.142;2023-03-14T21:34:09;0.30;;;0.30;;
12308;SDS011;6217;48.150;17.142;2023-03-14T21:38:15;0.43;;;0.43;;
12308;SDS011;6217;48.150;17.142;2023-03-14T21:42:22;0.50;;;0.50;;
12308;SDS011;6217;48.150;17.142;2023-03-14T21:46:28;0.50;;;0.50;;
12308;SDS011;6217;48.150;17.142;2023-03-14T21:50:34;2.00;;;0.52;;
12308;SDS011;6217;48.150;17.142;2023-03-14T21:54:40;0.50;;;0.40;;
12308;SDS011;6217;48.150;17.142;2023-03-14T21:58:47;1.67;;;0.30;;
12308;SDS011;6217;48.150;17.142;2023-03-14T22:02:53;0.43;;;0.40;;
12308;SDS011;6217;48.150;17.142;2023-03-14T22:07:01;1.58;;;0.50;;
12308;SDS011;6217;48.150;17.142;2023-03-14T22:11:13;0.75;;;0.70;;
12308;SDS011;6217;48.150;17.142;2023-03-14T22:15:19;1.85;;;0.40;;
12308;SDS011;6217;48.150;17.142;2023-03-14T22:19:25;2.70;;;0.80;;
12308;SDS011;6217;48.150;17.142;2023-03-14T22:23:32;1.10;;;0.80;;
12308;SDS011;6217;48.150;17.142;2023-03-14T22:27:38;0.90;;;0.40;;
12308;SDS011;6217;48.150;17.142;2023-03-14T22:31:44;0.50;;;0.40;;
12308;SDS011;6217;48.150;17.142;2023-03-14T22:35:50;1.00;;;0.60;;
12308;SDS011;6217;48.150;17.142;2023-03-14T22:39:57;0.52;;;0.40;;
12308;SDS011;6217;48.150;17.142;2023-03-14T22:44:03;2.03;;;0.40;;
12308;SDS011;6217;48.150;17.142;2023-03-14T22:48:12;0.43;;;0.40;;
12308;SDS011;6217;48.150;17.142;2023-03-14T22:52:24;0.68;;;0.60;;
12308;SDS011;6217;48.150;17.142;2023-03-14T22:56:36;0.40;;;0.40;;
12308;SDS011;6217;48.150;17.142;2023-03-14T23:00:42;0.50;;;0.30;;
12308;SDS011;6217;48.150;17.142;2023-03-14T23:04:49;0.98;;;0.50;;
12308;SDS011;6217;48.150;17.142;2023-03-14T23:08:56;0.40;;;0.40;;
12308;SDS011;6217;48.150;17.142;2023-03-14T23:13:01;1.10;;;0.40;;
12308;SDS011;6217;48.150;17.142;2023-03-14T23:17:09;1.85;;;0.40;;
12308;SDS011;6217;48.150;17.142;2023-03-14T23:21:17;0.40;;;0.40;;
12308;SDS011;6217;48.150;17.142;2023-03-14T23:25:26;0.88;;;0.43;;
12308;SDS011;6217;48.150;17.142;2023-03-14T23:29:32;0.68;;;0.68;;
12308;SDS011;6217;48.150;17.142;2023-03-14T23:33:42;2.05;;;0.60;;
12308;SDS011;6217;48.150;17.142;2023-03-14T23:37:48;0.50;;;0.40;;
12308;SDS011;6217;48.150;17.142;2023-03-14T23:41:54;1.27;;;0.43;;
12308;SDS011;6217;48.150;17.142;2023-03-14T23:46:00;2.35;;;0.55;;
12308;SDS011;6217;48.150;17.142;2023-03-14T23:50:07;1.13;;;0.70;;
12308;SDS011;6217;48.150;17.142;2023-03-14T23:54:13;2.17;;;0.50;;
12308;SDS011;6217;48.150;17.142;2023-03-14T23:58:19;0.75;;;0.40;;
